createdAt,value
2023-04-18T00:00:54.814Z,50.834801
2023-04-18T00:01:55.639Z,50.834808
2023-04-18T00:02:55.107Z,50.834812
2023-04-18T00:03:54.855Z,50.834816
2023-04-18T00:04:54.842Z,50.834808
2023-04-18T00:05:54.812Z,50.834797
2023-04-18T00:06:54.796Z,50.834782
2023-04-18T00:07:54.819Z,50.834797
2023-04-18T00:08:54.813Z,50.834812
2023-04-18T00:09:54.772Z,50.834816
2023-04-18T00:10:54.744Z,50.834801
2023-04-18T00:11:54.730Z,50.834812
2023-04-18T00:12:55.692Z,50.834827
2023-04-18T00:13:54.728Z,50.834816
2023-04-18T00:14:54.715Z,50.834812
2023-04-18T00:15:54.734Z,50.834808
2023-04-18T00:16:54.721Z,50.834805
2023-04-18T00:17:54.734Z,50.834835
2023-04-18T00:18:54.676Z,50.834812
2023-04-18T00:19:54.717Z,50.834816
2023-04-18T00:20:54.805Z,50.834831
2023-04-18T00:21:54.661Z,50.834820
2023-04-18T00:22:54.674Z,50.834835
2023-04-18T00:23:54.653Z,50.834808
2023-04-18T00:24:54.676Z,50.834850
2023-04-18T00:25:54.640Z,50.834854
2023-04-18T00:26:54.630Z,50.834850
2023-04-18T00:27:54.618Z,50.834801
2023-04-18T00:28:54.628Z,50.834801
2023-04-18T00:29:54.622Z,50.834789
2023-04-18T00:30:54.634Z,50.834805
2023-04-18T00:31:54.588Z,50.834789
2023-04-18T00:32:54.650Z,50.834824
2023-04-18T00:33:54.585Z,50.834812
2023-04-18T00:34:54.577Z,50.834801
2023-04-18T00:35:54.564Z,50.834812
2023-04-18T00:36:54.591Z,50.834816
2023-04-18T00:37:54.571Z,50.834816
2023-04-18T00:38:54.544Z,50.834801
2023-04-18T00:39:54.548Z,50.834839
2023-04-18T00:40:54.553Z,50.834820
2023-04-18T00:41:54.516Z,50.834820
2023-04-18T00:42:54.533Z,50.834820
2023-04-18T00:43:54.535Z,50.834812
2023-04-18T00:44:54.519Z,50.834812
2023-04-18T00:45:54.547Z,50.834824
2023-04-18T00:46:54.497Z,50.834805
2023-04-18T00:47:54.625Z,50.834831
2023-04-18T00:48:54.453Z,50.834812
2023-04-18T00:49:54.458Z,50.834812
2023-04-18T00:50:54.478Z,50.834812
2023-04-18T00:51:54.457Z,50.834824
2023-04-18T00:52:54.463Z,50.834839
2023-04-18T00:53:54.436Z,50.834839
2023-04-18T00:54:54.424Z,50.834816
2023-04-18T00:55:54.415Z,50.834816
2023-04-18T00:56:54.413Z,50.834831
2023-04-18T00:57:54.408Z,50.834835
2023-04-18T00:58:54.406Z,50.834812
2023-04-18T00:59:54.376Z,50.834820
2023-04-18T01:00:54.389Z,50.834816
2023-04-18T01:01:54.526Z,50.834808
2023-04-18T01:02:54.455Z,50.834793
2023-04-18T01:03:54.405Z,50.834827
2023-04-18T01:04:54.349Z,50.834812
2023-04-18T01:06:27.204Z,50.834820
2023-04-18T01:06:54.331Z,50.834820
2023-04-18T01:07:55.309Z,50.834820
2023-04-18T01:08:54.318Z,50.834808
2023-04-18T01:09:54.371Z,50.834816
2023-04-18T01:10:54.404Z,50.834820
2023-04-18T01:11:54.400Z,50.834812
2023-04-18T01:12:54.293Z,50.834816
2023-04-18T01:14:28.780Z,50.834831
2023-04-18T01:14:54.388Z,50.834816
2023-04-18T01:15:55.186Z,50.834824
2023-04-18T01:16:54.233Z,50.834820
2023-04-18T01:17:54.282Z,50.834831
2023-04-18T01:18:54.249Z,50.834846
2023-04-18T01:19:55.231Z,50.834843
2023-04-18T01:20:54.221Z,50.834827
2023-04-18T01:21:54.299Z,50.834824
2023-04-18T01:22:54.210Z,50.834831
2023-04-18T01:23:54.204Z,50.834805
2023-04-18T01:24:54.196Z,50.834816
2023-04-18T01:25:54.205Z,50.834808
2023-04-18T01:26:54.160Z,50.834816
2023-04-18T01:27:54.170Z,50.834827
2023-04-18T01:28:54.172Z,50.834831
2023-04-18T01:29:54.176Z,50.834839
2023-04-18T01:30:54.233Z,50.834835
2023-04-18T01:31:54.149Z,50.834850
2023-04-18T01:32:54.248Z,50.834820
2023-04-18T01:33:54.107Z,50.834812
2023-04-18T01:34:54.811Z,50.834839
2023-04-18T01:35:54.115Z,50.834831
2023-04-18T01:36:54.121Z,50.834835
2023-04-18T01:37:54.141Z,50.834831
2023-04-18T01:38:54.067Z,50.834824
2023-04-18T01:39:54.086Z,50.834824
2023-04-18T01:40:54.044Z,50.834812
2023-04-18T01:41:54.057Z,50.834839
2023-04-18T01:42:54.057Z,50.834827
2023-04-18T01:43:54.069Z,50.834827
2023-04-18T01:44:54.072Z,50.834808
2023-04-18T01:45:54.838Z,50.834843
2023-04-18T01:46:54.089Z,50.834801
2023-04-18T01:47:54.017Z,50.834808
2023-04-18T01:48:53.994Z,50.834816
2023-04-18T01:49:54.001Z,50.834812
2023-04-18T01:50:54.006Z,50.834820
2023-04-18T01:51:53.971Z,50.834801
2023-04-18T01:52:53.965Z,50.834816
2023-04-18T01:53:54.109Z,50.834839
2023-04-18T01:54:53.958Z,50.834827
2023-04-18T01:55:53.965Z,50.834824
2023-04-18T01:56:53.972Z,50.834816
2023-04-18T01:57:53.911Z,50.834808
2023-04-18T01:58:53.934Z,50.834808
2023-04-18T01:59:53.906Z,50.834820
2023-04-18T02:00:53.973Z,50.834820
2023-04-18T02:01:53.969Z,50.834827
2023-04-18T02:02:54.009Z,50.834843
2023-04-18T02:03:54.202Z,50.834831
2023-04-18T02:04:53.876Z,50.834843
2023-04-18T02:05:53.873Z,50.834835
2023-04-18T02:06:53.877Z,50.834831
2023-04-18T02:07:53.921Z,50.834835
2023-04-18T02:08:53.861Z,50.834843
2023-04-18T02:09:53.845Z,50.834839
2023-04-18T02:10:53.859Z,50.834854
2023-04-18T02:11:53.853Z,50.834846
2023-04-18T02:12:53.862Z,50.834858
2023-04-18T02:13:53.807Z,50.834858
2023-04-18T02:14:53.825Z,50.834839
2023-04-18T02:15:53.800Z,50.834820
2023-04-18T02:16:53.814Z,50.834854
2023-04-18T02:17:53.871Z,50.834831
2023-04-18T02:18:53.801Z,50.834820
2023-04-18T02:19:53.769Z,50.834843
2023-04-18T02:20:53.749Z,50.834839
2023-04-18T02:21:53.736Z,50.834843
2023-04-18T02:22:53.764Z,50.834824
2023-04-18T02:23:53.746Z,50.834843
2023-04-18T02:24:53.744Z,50.834801
2023-04-18T02:25:53.718Z,50.834820
2023-04-18T02:26:53.711Z,50.834827
2023-04-18T02:27:53.706Z,50.834797
2023-04-18T02:28:53.715Z,50.834808
2023-04-18T02:29:53.701Z,50.834835
2023-04-18T02:30:53.684Z,50.834801
2023-04-18T02:31:53.721Z,50.834843
2023-04-18T02:32:53.718Z,50.834824
2023-04-18T02:33:53.683Z,50.834785
2023-04-18T02:34:53.662Z,50.834801
2023-04-18T02:35:53.668Z,50.834808
2023-04-18T02:36:53.661Z,50.834763
2023-04-18T02:37:53.640Z,50.834740
2023-04-18T02:38:53.639Z,50.834778
2023-04-18T02:39:53.712Z,50.834843
2023-04-18T02:40:53.600Z,50.834770
2023-04-18T02:41:53.595Z,50.834778
2023-04-18T02:42:53.609Z,50.834816
2023-04-18T02:43:53.591Z,50.834824
2023-04-18T02:44:53.623Z,50.834797
2023-04-18T02:45:53.610Z,50.834770
2023-04-18T02:46:53.577Z,50.834774
2023-04-18T02:47:55.953Z,50.834805
2023-04-18T02:48:54.543Z,50.834797
2023-04-18T02:49:53.545Z,50.834793
2023-04-18T02:50:53.540Z,50.834785
2023-04-18T02:51:53.564Z,50.834763
2023-04-18T02:52:53.534Z,50.834766
2023-04-18T02:53:54.168Z,50.834778
2023-04-18T02:54:53.509Z,50.834816
2023-04-18T02:55:53.482Z,50.834805
2023-04-18T02:56:53.493Z,50.834778
2023-04-18T02:57:53.551Z,50.834755
2023-04-18T02:58:53.470Z,50.834789
2023-04-18T02:59:53.466Z,50.834801
2023-04-18T03:00:53.528Z,50.834797
2023-04-18T03:01:53.461Z,50.834774
2023-04-18T03:02:53.688Z,50.834778
2023-04-18T03:03:53.435Z,50.834797
2023-04-18T03:04:53.499Z,50.834766
2023-04-18T03:05:53.408Z,50.834743
2023-04-18T03:06:53.418Z,50.834759
2023-04-18T03:07:54.320Z,50.834774
2023-04-18T03:08:53.401Z,50.834785
2023-04-18T03:09:53.380Z,50.834789
2023-04-18T03:10:54.629Z,50.834770
2023-04-18T03:11:53.386Z,50.834778
2023-04-18T03:12:53.361Z,50.834793
2023-04-18T03:13:53.345Z,50.834797
2023-04-18T03:14:53.330Z,50.834793
2023-04-18T03:15:53.376Z,50.834774
2023-04-18T03:16:55.347Z,50.834751
2023-04-18T03:17:54.419Z,50.834797
2023-04-18T03:18:53.323Z,50.834812
2023-04-18T03:19:53.364Z,50.834831
2023-04-18T03:20:53.321Z,50.834831
2023-04-18T03:21:53.334Z,50.834824
2023-04-18T03:22:53.300Z,50.834820
2023-04-18T03:23:53.298Z,50.834808
2023-04-18T03:24:53.269Z,50.834820
2023-04-18T03:25:53.291Z,50.834801
2023-04-18T03:26:53.250Z,50.834827
2023-04-18T03:27:53.250Z,50.834808
2023-04-18T03:28:53.263Z,50.834816
2023-04-18T03:29:53.245Z,50.834854
2023-04-18T03:30:53.243Z,50.834839
2023-04-18T03:31:53.234Z,50.834850
2023-04-18T03:32:53.320Z,50.834824
2023-04-18T03:33:53.207Z,50.834831
2023-04-18T03:34:53.831Z,50.834831
2023-04-18T03:35:53.184Z,50.834835
2023-04-18T03:36:53.170Z,50.834808
2023-04-18T03:37:53.173Z,50.834827
2023-04-18T03:38:53.179Z,50.834827
2023-04-18T03:39:53.197Z,50.834824
2023-04-18T03:40:53.157Z,50.834827
2023-04-18T03:41:53.125Z,50.834850
2023-04-18T03:42:53.122Z,50.834854
2023-04-18T03:43:53.138Z,50.834843
2023-04-18T03:44:53.096Z,50.834824
2023-04-18T03:45:53.149Z,50.834839
2023-04-18T03:46:53.089Z,50.834831
2023-04-18T04:07:03.931Z,50.834858
2023-04-18T04:08:03.950Z,50.834846
2023-04-18T04:09:03.940Z,50.834846
2023-04-18T04:10:04.522Z,50.834843
2023-04-18T04:11:03.913Z,50.834839
2023-04-18T04:12:03.937Z,50.834850
2023-04-18T04:13:03.907Z,50.834839
2023-04-18T04:14:03.878Z,50.834843
2023-04-18T04:15:03.864Z,50.834854
2023-04-18T04:16:03.904Z,50.834846
2023-04-18T04:17:03.885Z,50.834850
2023-04-18T04:18:03.916Z,50.834846
2023-04-18T04:19:03.861Z,50.834843
2023-04-18T04:20:03.856Z,50.834831
2023-04-18T04:21:03.846Z,50.834835
2023-04-18T04:22:03.843Z,50.834858
2023-04-18T04:23:03.838Z,50.834850
2023-04-18T04:24:03.830Z,50.834831
2023-04-18T04:25:03.797Z,50.834831
2023-04-18T04:26:03.776Z,50.834843
2023-04-18T04:27:03.779Z,50.834846
2023-04-18T04:28:03.806Z,50.834839
2023-04-18T04:29:03.782Z,50.834843
2023-04-18T04:30:03.756Z,50.834824
2023-04-18T04:31:03.784Z,50.834835
2023-04-18T04:32:03.818Z,50.834835
2023-04-18T04:33:03.795Z,50.834839
2023-04-18T04:34:03.728Z,50.834835
2023-04-18T04:35:03.747Z,50.834824
2023-04-18T04:36:03.735Z,50.834820
2023-04-18T04:37:36.503Z,50.834820
2023-04-18T04:38:03.707Z,50.834839
2023-04-18T04:39:03.668Z,50.834831
2023-04-18T04:40:03.708Z,50.834831
2023-04-18T04:41:03.673Z,50.834827
2023-04-18T04:42:03.662Z,50.834827
2023-04-18T04:43:03.638Z,50.834816
2023-04-18T04:44:04.647Z,50.834835
2023-04-18T04:45:03.674Z,50.834846
2023-04-18T04:46:04.719Z,50.834824
2023-04-18T04:47:03.638Z,50.834827
2023-04-18T04:48:03.705Z,50.834846
2023-04-18T04:49:03.604Z,50.834850
2023-04-18T04:50:03.604Z,50.834839
2023-04-18T04:51:03.614Z,50.834843
2023-04-18T04:52:03.596Z,50.834808
2023-04-18T04:53:03.575Z,50.834808
2023-04-18T04:54:03.548Z,50.834873
2023-04-18T04:55:03.553Z,50.834854
2023-04-18T04:56:03.553Z,50.834843
2023-04-18T04:57:03.539Z,50.834866
2023-04-18T04:58:03.539Z,50.834866
2023-04-18T04:59:03.517Z,50.834862
2023-04-18T05:00:03.518Z,50.834839
2023-04-18T05:01:03.541Z,50.834846
2023-04-18T05:02:03.656Z,50.834862
2023-04-18T05:03:03.696Z,50.834869
2023-04-18T05:04:03.552Z,50.834854
2023-04-18T05:05:03.510Z,50.834835
2023-04-18T05:06:03.480Z,50.834858
2023-04-18T05:07:03.481Z,50.834805
2023-04-18T05:08:03.449Z,50.834808
2023-04-18T05:09:03.490Z,50.834850
2023-04-18T05:10:03.466Z,50.834862
2023-04-18T05:11:03.435Z,50.834866
2023-04-18T05:12:03.443Z,50.834873
2023-04-18T05:13:03.408Z,50.834885
2023-04-18T05:14:03.441Z,50.834866
2023-04-18T05:15:03.385Z,50.834866
2023-04-18T05:16:03.402Z,50.834866
2023-04-18T05:17:03.453Z,50.834854
2023-04-18T05:18:03.414Z,50.834858
2023-04-18T05:19:03.369Z,50.834827
2023-04-18T05:20:03.933Z,50.834805
2023-04-18T05:21:03.385Z,50.834827
2023-04-18T05:22:03.342Z,50.834839
2023-04-18T05:23:03.325Z,50.834824
2023-04-18T05:24:03.328Z,50.834824
2023-04-18T05:25:04.323Z,50.834827
2023-04-18T05:26:03.333Z,50.834850
2023-04-18T05:27:03.299Z,50.834850
2023-04-18T05:28:03.277Z,50.834854
2023-04-18T05:29:03.310Z,50.834843
2023-04-18T05:30:03.268Z,50.834812
2023-04-18T05:31:03.387Z,50.834831
2023-04-18T05:32:03.274Z,50.834827
2023-04-18T05:33:04.168Z,50.834850
2023-04-18T05:34:03.248Z,50.834835
2023-04-18T05:35:03.282Z,50.834869
2023-04-18T05:36:03.259Z,50.834812
2023-04-18T05:37:03.232Z,50.834827
2023-04-18T05:38:03.219Z,50.834858
2023-04-18T05:39:03.246Z,50.834839
2023-04-18T05:40:04.107Z,50.834854
2023-04-18T05:41:03.199Z,50.834850
2023-04-18T05:42:03.204Z,50.834839
2023-04-18T05:43:03.194Z,50.834846
2023-04-18T05:44:05.793Z,50.834862
2023-04-18T05:45:04.155Z,50.834850
2023-04-18T05:46:03.187Z,50.834824
2023-04-18T05:47:03.204Z,50.834824
2023-04-18T05:48:03.242Z,50.834824
2023-04-18T05:49:03.153Z,50.834850
2023-04-18T05:50:03.139Z,50.834831
2023-04-18T05:51:03.140Z,50.834812
2023-04-18T05:52:04.126Z,50.834831
2023-04-18T05:53:03.126Z,50.834846
2023-04-18T05:54:03.105Z,50.834835
2023-04-18T05:55:03.106Z,50.834820
2023-04-18T05:56:03.070Z,50.834858
2023-04-18T05:57:04.772Z,50.834888
2023-04-18T05:58:04.067Z,50.834862
2023-04-18T05:59:03.040Z,50.834801
2023-04-18T06:00:03.119Z,50.834831
2023-04-18T06:01:03.030Z,50.834843
2023-04-18T06:02:03.114Z,50.834873
2023-04-18T06:03:03.201Z,50.834854
2023-04-18T06:04:03.109Z,50.834854
2023-04-18T06:05:03.301Z,50.834877
2023-04-18T06:06:03.127Z,50.834881
2023-04-18T06:07:02.990Z,50.834881
2023-04-18T06:08:02.982Z,50.834866
2023-04-18T06:09:03.014Z,50.834835
2023-04-18T06:10:02.982Z,50.834797
2023-04-18T06:11:02.961Z,50.834812
2023-04-18T06:12:02.964Z,50.834846
2023-04-18T06:13:02.948Z,50.834904
2023-04-18T06:14:02.957Z,50.834858
2023-04-18T06:15:02.969Z,50.834846
2023-04-18T06:16:02.978Z,50.834816
2023-04-18T06:17:02.910Z,50.834812
2023-04-18T06:18:02.956Z,50.834862
2023-04-18T06:19:03.014Z,50.834919
2023-04-18T06:20:03.905Z,50.834827
2023-04-18T06:21:02.871Z,50.834808
2023-04-18T06:22:02.865Z,50.834808
2023-04-18T06:23:02.853Z,50.834831
2023-04-18T06:24:02.871Z,50.834866
2023-04-18T06:25:02.890Z,50.834919
2023-04-18T06:26:02.852Z,50.834858
2023-04-18T06:27:02.838Z,50.834904
2023-04-18T06:28:02.840Z,50.834896
2023-04-18T06:29:02.816Z,50.834839
2023-04-18T06:30:02.827Z,50.834869
2023-04-18T06:31:02.852Z,50.834850
2023-04-18T06:32:02.895Z,50.834782
2023-04-18T06:33:02.881Z,50.834850
2023-04-18T06:34:02.774Z,50.834797
2023-04-18T06:35:02.798Z,50.834850
2023-04-18T06:36:02.804Z,50.834820
2023-04-18T06:37:02.774Z,50.834816
2023-04-18T06:38:02.783Z,50.834801
2023-04-18T06:39:02.748Z,50.834835
2023-04-18T06:40:02.750Z,50.834843
2023-04-18T06:41:02.734Z,50.834824
2023-04-18T06:42:02.758Z,50.834835
2023-04-18T06:43:02.737Z,50.834827
2023-04-18T06:44:04.425Z,50.834816
2023-04-18T06:45:02.726Z,50.834824
2023-04-18T06:46:02.707Z,50.834843
2023-04-18T06:47:02.720Z,50.834831
2023-04-18T06:48:02.658Z,50.834801
2023-04-18T06:49:02.657Z,50.834778
2023-04-18T06:50:02.676Z,50.834827
2023-04-18T06:51:02.653Z,50.834820
2023-04-18T06:52:02.632Z,50.834805
2023-04-18T06:53:02.666Z,50.834824
2023-04-18T06:54:02.964Z,50.834839
2023-04-18T06:55:02.672Z,50.834831
2023-04-18T06:56:02.623Z,50.834812
2023-04-18T06:57:02.596Z,50.834808
2023-04-18T06:58:02.603Z,50.834827
2023-04-18T06:59:02.620Z,50.834812
2023-04-18T07:00:02.607Z,50.834824
2023-04-18T07:01:02.592Z,50.834839
2023-04-18T07:02:02.602Z,50.834854
2023-04-18T07:03:02.799Z,50.834827
2023-04-18T07:04:02.754Z,50.834824
2023-04-18T07:05:02.570Z,50.834805
2023-04-18T07:06:02.532Z,50.834816
2023-04-18T07:07:02.507Z,50.834805
2023-04-18T07:08:02.540Z,50.834812
2023-04-18T07:09:02.611Z,50.834816
2023-04-18T07:10:02.513Z,50.834843
2023-04-18T07:11:02.511Z,50.834835
2023-04-18T07:12:02.534Z,50.834827
2023-04-18T07:13:02.504Z,50.834801
2023-04-18T07:14:02.466Z,50.834793
2023-04-18T07:15:02.724Z,50.834805
2023-04-18T07:16:02.510Z,50.834797
2023-04-18T07:17:02.546Z,50.834843
2023-04-18T07:18:02.515Z,50.834801
2023-04-18T07:19:02.437Z,50.834801
2023-04-18T07:20:02.439Z,50.834808
2023-04-18T07:21:02.455Z,50.834805
2023-04-18T07:22:02.416Z,50.834831
2023-04-18T07:23:02.392Z,50.834808
2023-04-18T07:24:02.420Z,50.834831
2023-04-18T07:25:02.406Z,50.834839
2023-04-18T07:26:02.456Z,50.834831
2023-04-18T07:27:02.389Z,50.834846
2023-04-18T07:28:02.371Z,50.834839
2023-04-18T07:29:02.363Z,50.834820
2023-04-18T07:30:02.361Z,50.834835
2023-04-18T07:31:02.424Z,50.834835
2023-04-18T07:32:02.324Z,50.834843
2023-04-18T07:33:02.337Z,50.834846
2023-04-18T07:34:02.327Z,50.834835
2023-04-18T07:35:02.385Z,50.834850
2023-04-18T07:36:02.405Z,50.834858
2023-04-18T07:37:02.418Z,50.834843
2023-04-18T07:38:02.273Z,50.834846
2023-04-18T07:39:02.272Z,50.834850
2023-04-18T07:40:02.277Z,50.834843
2023-04-18T07:41:02.277Z,50.834835
2023-04-18T07:42:02.253Z,50.834854
2023-04-18T07:43:02.246Z,50.834827
2023-04-18T07:44:02.230Z,50.834835
2023-04-18T07:45:02.261Z,50.834850
2023-04-18T07:46:02.331Z,50.834843
2023-04-18T07:47:02.263Z,50.834843
2023-04-18T07:48:02.214Z,50.834846
2023-04-18T07:49:03.234Z,50.834846
2023-04-18T07:50:02.210Z,50.834839
2023-04-18T07:51:02.204Z,50.834843
2023-04-18T07:52:02.193Z,50.834843
2023-04-18T07:53:02.157Z,50.834824
2023-04-18T07:54:02.225Z,50.834835
2023-04-18T07:55:02.247Z,50.834835
2023-04-18T07:56:02.146Z,50.834839
2023-04-18T07:57:02.149Z,50.834839
2023-04-18T07:58:02.173Z,50.834877
2023-04-18T07:59:02.158Z,50.834839
2023-04-18T08:00:02.134Z,50.834835
2023-04-18T08:01:02.161Z,50.834820
2023-04-18T08:02:02.145Z,50.834827
2023-04-18T08:03:03.391Z,50.834812
2023-04-18T08:04:02.536Z,50.834816
2023-04-18T08:05:02.181Z,50.834820
2023-04-18T08:06:02.063Z,50.834797
2023-04-18T08:07:02.078Z,50.834816
2023-04-18T08:08:02.111Z,50.834824
2023-04-18T08:09:02.075Z,50.834835
2023-04-18T08:10:02.059Z,50.834816
2023-04-18T08:11:02.030Z,50.834816
2023-04-18T08:12:02.053Z,50.834843
2023-04-18T08:13:02.027Z,50.834839
2023-04-18T08:14:01.993Z,50.834812
2023-04-18T08:15:02.609Z,50.834835
2023-04-18T08:16:02.043Z,50.834808
2023-04-18T08:17:02.010Z,50.834820
2023-04-18T08:18:02.020Z,50.834827
2023-04-18T08:19:01.990Z,50.834827
2023-04-18T08:20:01.993Z,50.834831
2023-04-18T08:21:01.950Z,50.834831
2023-04-18T08:22:01.937Z,50.834843
2023-04-18T08:23:07.930Z,50.834812
2023-04-18T08:24:04.604Z,50.834812
2023-04-18T08:25:05.347Z,50.834816
2023-04-18T08:26:02.938Z,50.834843
2023-04-18T08:27:01.932Z,50.834824
2023-04-18T08:28:01.921Z,50.834812
2023-04-18T08:29:01.892Z,50.834808
2023-04-18T08:30:01.931Z,50.834827
2023-04-18T08:31:01.890Z,50.834824
2023-04-18T08:32:01.968Z,50.834805
2023-04-18T08:33:02.569Z,50.834835
2023-04-18T08:34:04.444Z,50.834831
2023-04-18T08:35:01.964Z,50.834862
2023-04-18T08:36:01.834Z,50.834835
2023-04-18T08:37:01.801Z,50.834831
2023-04-18T08:38:01.817Z,50.834827
2023-04-18T08:39:01.816Z,50.834827
2023-04-18T08:40:01.809Z,50.834866
2023-04-18T08:41:01.809Z,50.834835
2023-04-18T08:42:01.789Z,50.834808
2023-04-18T08:43:01.776Z,50.834801
2023-04-18T08:44:01.931Z,50.834805
2023-04-18T08:45:01.776Z,50.834793
2023-04-18T08:46:01.854Z,50.834766
2023-04-18T08:47:01.934Z,50.834797
2023-04-18T08:48:01.890Z,50.834808
2023-04-18T08:49:01.723Z,50.834782
2023-04-18T08:50:01.764Z,50.834808
2023-04-18T08:51:01.751Z,50.834808
2023-04-18T08:52:01.725Z,50.834782
2023-04-18T08:53:01.730Z,50.834785
2023-04-18T08:54:01.682Z,50.834805
2023-04-18T08:55:01.791Z,50.834805
2023-04-18T08:56:01.747Z,50.834808
2023-04-18T08:57:01.663Z,50.834797
2023-04-18T08:58:01.673Z,50.834793
2023-04-18T08:59:01.665Z,50.834782
2023-04-18T09:00:01.710Z,50.834789
2023-04-18T09:01:01.745Z,50.834808
2023-04-18T09:02:01.747Z,50.834827
2023-04-18T09:03:01.707Z,50.834812
2023-04-18T09:04:01.679Z,50.834797
2023-04-18T09:05:01.639Z,50.834793
2023-04-18T09:06:01.584Z,50.834797
2023-04-18T09:07:01.690Z,50.834812
2023-04-18T09:08:01.582Z,50.834782
2023-04-18T09:09:01.626Z,50.834785
2023-04-18T09:10:01.547Z,50.834797
2023-04-18T09:11:01.582Z,50.834785
2023-04-18T09:12:01.572Z,50.834793
2023-04-18T09:13:01.561Z,50.834797
2023-04-18T09:14:01.538Z,50.834801
2023-04-18T09:15:01.583Z,50.834774
2023-04-18T09:16:01.511Z,50.834816
2023-04-18T09:17:01.536Z,50.834785
2023-04-18T09:18:02.173Z,50.834778
2023-04-18T09:19:01.511Z,50.834778
2023-04-18T09:20:01.586Z,50.834808
2023-04-18T09:21:01.465Z,50.834797
2023-04-18T09:22:01.485Z,50.834774
2023-04-18T09:23:01.607Z,50.834793
2023-04-18T09:24:01.469Z,50.834805
2023-04-18T09:25:01.482Z,50.834797
2023-04-18T09:26:01.520Z,50.834789
2023-04-18T09:27:01.431Z,50.834782
2023-04-18T09:28:01.535Z,50.834774
2023-04-18T09:29:01.465Z,50.834782
2023-04-18T09:30:01.444Z,50.834785
2023-04-18T09:31:01.486Z,50.834774
2023-04-18T09:32:01.537Z,50.834789
2023-04-18T09:33:01.465Z,50.834793
2023-04-18T09:34:01.374Z,50.834782
2023-04-18T09:35:04.227Z,50.834774
2023-04-18T09:36:01.408Z,50.834774
2023-04-18T09:37:01.388Z,50.834778
2023-04-18T09:38:01.368Z,50.834774
2023-04-18T09:39:02.144Z,50.834755
2023-04-18T09:40:01.332Z,50.834751
2023-04-18T09:41:01.352Z,50.834770
2023-04-18T09:42:01.339Z,50.834770
2023-04-18T09:43:01.322Z,50.834763
2023-04-18T09:44:01.374Z,50.834789
2023-04-18T09:45:01.317Z,50.834766
2023-04-18T09:46:01.416Z,50.834766
2023-04-18T09:47:01.307Z,50.834766
2023-04-18T09:48:01.425Z,50.834789
2023-04-18T09:49:01.336Z,50.834782
2023-04-18T09:50:01.343Z,50.834782
2023-04-18T09:51:01.394Z,50.834770
2023-04-18T09:52:01.266Z,50.834782
2023-04-18T09:53:01.230Z,50.834808
2023-04-18T09:54:01.242Z,50.834774
2023-04-18T09:55:02.150Z,50.834812
2023-04-18T09:56:01.217Z,50.834816
2023-04-18T09:57:01.293Z,50.834854
2023-04-18T09:58:01.209Z,50.834824
2023-04-18T09:59:01.176Z,50.834824
2023-04-18T10:00:01.176Z,50.834820
2023-04-18T10:01:01.195Z,50.834824
2023-04-18T10:02:01.270Z,50.834816
2023-04-18T10:03:02.310Z,50.834808
2023-04-18T10:04:01.333Z,50.834812
2023-04-18T10:05:02.209Z,50.834782
2023-04-18T10:06:01.122Z,50.834793
2023-04-18T10:07:01.147Z,50.834816
2023-04-18T10:08:01.097Z,50.834789
2023-04-18T10:09:01.206Z,50.834785
2023-04-18T10:10:01.106Z,50.834835
2023-04-18T10:11:01.212Z,50.834805
2023-04-18T10:12:01.094Z,50.834778
2023-04-18T10:13:01.219Z,50.834805
2023-04-18T10:14:01.056Z,50.834778
2023-04-18T10:15:01.097Z,50.834801
2023-04-18T10:16:01.090Z,50.834805
2023-04-18T10:17:01.075Z,50.834785
2023-04-18T10:18:05.228Z,50.834778
2023-04-18T10:19:03.015Z,50.834797
2023-04-18T10:20:01.023Z,50.834774
2023-04-18T10:21:01.006Z,50.834797
2023-04-18T10:22:00.999Z,50.834793
2023-04-18T10:23:01.061Z,50.834793
2023-04-18T10:24:00.996Z,50.834785
2023-04-18T10:25:00.981Z,50.834778
2023-04-18T10:26:00.984Z,50.834785
2023-04-18T10:27:01.123Z,50.834801
2023-04-18T10:28:00.985Z,50.834789
2023-04-18T10:29:00.995Z,50.834793
2023-04-18T10:30:01.012Z,50.834801
2023-04-18T10:31:01.057Z,50.834785
2023-04-18T10:32:00.952Z,50.834793
2023-04-18T10:33:00.959Z,50.834797
2023-04-18T10:34:05.247Z,50.834805
2023-04-18T10:35:01.935Z,50.834797
2023-04-18T10:36:00.921Z,50.834797
2023-04-18T10:37:00.915Z,50.834789
2023-04-18T10:38:00.901Z,50.834793
2023-04-18T10:39:01.002Z,50.834793
2023-04-18T10:40:00.881Z,50.834793
2023-04-18T10:41:00.872Z,50.834782
2023-04-18T10:42:00.901Z,50.834789
2023-04-18T10:43:01.825Z,50.834797
2023-04-18T10:44:00.829Z,50.834789
2023-04-18T10:45:00.832Z,50.834789
2023-04-18T10:46:00.807Z,50.834797
2023-04-18T10:47:00.854Z,50.834816
2023-04-18T10:48:00.849Z,50.834812
2023-04-18T10:49:00.792Z,50.834808
2023-04-18T10:50:00.830Z,50.834820
2023-04-18T10:51:00.784Z,50.834820
2023-04-18T10:52:00.808Z,50.834820
2023-04-18T10:53:00.820Z,50.834820
2023-04-18T10:54:00.750Z,50.834827
2023-04-18T10:55:00.787Z,50.834827
2023-04-18T10:56:00.797Z,50.834812
2023-04-18T10:57:00.719Z,50.834801
2023-04-18T10:58:00.803Z,50.834797
2023-04-18T10:59:00.733Z,50.834816
2023-04-18T11:00:00.717Z,50.834812
2023-04-18T11:01:00.754Z,50.834808
2023-04-18T11:02:00.736Z,50.834805
2023-04-18T11:03:00.839Z,50.834797
2023-04-18T11:04:00.905Z,50.834793
2023-04-18T11:05:00.691Z,50.834797
2023-04-18T11:06:00.718Z,50.834808
2023-04-18T11:07:00.684Z,50.834812
2023-04-18T11:08:00.781Z,50.834820
2023-04-18T11:09:00.636Z,50.834824
2023-04-18T11:10:00.716Z,50.834820
2023-04-18T11:11:00.687Z,50.834816
2023-04-18T11:12:00.642Z,50.834812
2023-04-18T11:13:00.622Z,50.834816
2023-04-18T11:14:00.599Z,50.834820
2023-04-18T11:15:00.707Z,50.834812
2023-04-18T11:16:00.618Z,50.834808
2023-04-18T11:17:00.643Z,50.834816
2023-04-18T11:18:00.634Z,50.834808
2023-04-18T11:19:00.590Z,50.834808
2023-04-18T11:20:00.607Z,50.834827
2023-04-18T11:21:00.562Z,50.834827
2023-04-18T11:22:00.645Z,50.834801
2023-04-18T11:23:00.663Z,50.834816
2023-04-18T11:24:00.537Z,50.834820
2023-04-18T11:25:00.531Z,50.834816
2023-04-18T11:26:00.571Z,50.834801
2023-04-18T11:27:00.536Z,50.834816
2023-04-18T11:28:00.574Z,50.834820
2023-04-18T11:29:00.511Z,50.834820
2023-04-18T11:30:00.519Z,50.834831
2023-04-18T11:31:00.535Z,50.834831
2023-04-18T11:32:00.549Z,50.834824
2023-04-18T11:33:00.580Z,50.834835
2023-04-18T11:34:00.533Z,50.834831
2023-04-18T11:35:00.455Z,50.834816
2023-04-18T11:36:00.442Z,50.834827
2023-04-18T11:37:00.461Z,50.834816
2023-04-18T11:38:00.403Z,50.834808
2023-04-18T11:39:00.424Z,50.834801
2023-04-18T11:40:00.443Z,50.834812
2023-04-18T11:41:00.410Z,50.834816
2023-04-18T11:42:01.163Z,50.834820
2023-04-18T11:43:00.412Z,50.834831
2023-04-18T11:44:00.416Z,50.834824